createdAt,value
2023-04-25T00:01:02.546Z,73.52
2023-04-25T00:02:04.029Z,73.63
2023-04-25T00:03:06.883Z,73.79
2023-04-25T00:04:08.592Z,73.91
2023-04-25T00:05:10.666Z,73.83
2023-04-25T00:06:12.530Z,73.82
2023-04-25T00:07:14.041Z,73.74
2023-04-25T00:08:15.523Z,73.84
2023-04-25T00:09:17.101Z,73.86
2023-04-25T00:10:19.750Z,73.78
2023-04-25T00:11:21.230Z,73.65
2023-04-25T00:12:23.248Z,73.54
2023-04-25T00:13:25.869Z,73.43
2023-04-25T00:14:28.063Z,73.38
2023-04-25T00:15:32.363Z,73.32
2023-04-25T00:16:35.167Z,73.28
2023-04-25T00:17:38.624Z,73.21
2023-04-25T00:18:40.127Z,73.18
2023-04-25T00:19:41.626Z,73.14
2023-04-25T00:20:46.693Z,73.09
2023-04-25T00:21:48.313Z,73.03
2023-04-25T00:22:50.048Z,72.90
2023-04-25T00:23:53.421Z,72.76
2023-04-25T00:24:57.523Z,72.84
2023-04-25T00:25:58.987Z,72.78
2023-04-25T00:27:00.423Z,72.77
2023-04-25T00:28:01.908Z,72.78
2023-04-25T00:29:03.846Z,72.63
2023-04-25T00:30:06.087Z,72.64
2023-04-25T00:31:07.742Z,72.59
2023-04-25T00:32:09.274Z,72.52
2023-04-25T00:33:10.744Z,72.55
2023-04-25T00:34:12.254Z,72.47
2023-04-25T00:35:13.736Z,72.50
2023-04-25T00:36:15.240Z,72.39
2023-04-25T00:37:16.776Z,72.38
2023-04-25T00:38:18.273Z,72.48
2023-04-25T00:39:20.137Z,72.54
2023-04-25T00:40:21.731Z,72.67
2023-04-25T00:41:25.582Z,72.69
2023-04-25T00:42:27.361Z,72.91
2023-04-25T00:43:31.730Z,72.89
2023-04-25T00:44:35.718Z,72.83
2023-04-25T00:45:39.685Z,73.07
2023-04-25T00:46:41.758Z,72.98
2023-04-25T00:47:43.879Z,72.91
2023-04-25T00:48:45.733Z,73.03
2023-04-25T00:49:47.629Z,72.98
2023-04-25T00:50:56.996Z,72.90
2023-04-25T00:51:58.478Z,72.99
2023-04-25T00:53:01.098Z,73.17
2023-04-25T00:54:02.697Z,73.21
2023-04-25T00:55:04.745Z,73.01
2023-04-25T00:56:06.421Z,72.98
2023-04-25T00:57:07.980Z,72.90
2023-04-25T00:58:09.530Z,72.94
2023-04-25T00:59:11.587Z,72.98
2023-04-25T01:00:15.234Z,72.98
2023-04-25T01:01:16.845Z,72.95
2023-04-25T01:02:18.821Z,72.93
2023-04-25T01:03:21.389Z,72.87
2023-04-25T01:04:23.503Z,72.85
2023-04-25T01:05:25.294Z,72.91
2023-04-25T01:06:27.780Z,72.89
2023-04-25T01:07:29.557Z,72.80
2023-04-25T01:08:31.897Z,72.79
2023-04-25T01:09:33.532Z,72.82
2023-04-25T01:10:36.289Z,72.86
2023-04-25T01:11:37.790Z,72.91
2023-04-25T01:12:39.734Z,72.93
2023-04-25T01:13:41.374Z,72.96
2023-04-25T01:14:42.897Z,73.02
2023-04-25T01:15:44.973Z,73.06
2023-04-25T01:16:46.938Z,73.14
2023-04-25T01:17:49.582Z,73.21
2023-04-25T01:18:51.708Z,73.20
2023-04-25T01:19:53.222Z,73.24
2023-04-25T01:20:55.921Z,73.27
2023-04-25T01:21:57.435Z,73.26
2023-04-25T01:22:59.554Z,73.31
2023-04-25T01:24:01.398Z,73.29
2023-04-25T01:25:03.360Z,73.50
2023-04-25T01:26:07.205Z,73.49
2023-04-25T01:27:09.154Z,73.57
2023-04-25T01:28:10.878Z,73.63
2023-04-25T01:29:12.589Z,73.75
2023-04-25T01:31:44.946Z,73.88
2023-04-25T01:32:47.861Z,73.83
2023-04-25T01:33:49.617Z,73.85
2023-04-25T01:34:51.480Z,73.80
2023-04-25T01:35:55.044Z,73.77
2023-04-25T01:36:56.506Z,73.86
2023-04-25T01:37:58.441Z,73.75
2023-04-25T01:39:01.037Z,73.77
2023-04-25T01:40:05.581Z,73.76
2023-04-25T01:41:07.433Z,73.87
2023-04-25T01:42:08.954Z,73.93
2023-04-25T01:43:12.309Z,73.98
2023-04-25T01:44:15.015Z,73.96
2023-04-25T01:45:17.025Z,74.13
2023-04-25T01:46:18.763Z,74.07
2023-04-25T01:47:20.548Z,74.08
2023-04-25T01:48:22.070Z,74.07
2023-04-25T01:49:24.027Z,74.11
2023-04-25T01:50:25.788Z,74.01
2023-04-25T01:51:27.439Z,74.01
2023-04-25T01:52:29.388Z,74.00
2023-04-25T01:53:31.646Z,74.25
2023-04-25T01:54:33.480Z,74.21
2023-04-25T01:55:35.312Z,74.32
2023-04-25T01:56:41.304Z,74.44
2023-04-25T01:57:45.205Z,74.36
2023-04-25T01:58:46.947Z,74.31
2023-04-25T02:00:04.579Z,74.31
2023-04-25T02:01:15.136Z,74.34
2023-04-25T02:02:20.236Z,74.35
2023-04-25T02:03:22.011Z,74.51
2023-04-25T02:04:23.985Z,74.53
2023-04-25T02:05:26.610Z,74.56
2023-04-25T02:06:28.442Z,74.53
2023-04-25T02:07:32.869Z,74.79
2023-04-25T02:08:34.847Z,74.76
2023-04-25T02:09:36.270Z,74.78
2023-04-25T02:10:40.821Z,74.82
2023-04-25T02:11:50.549Z,74.91
2023-04-25T02:13:21.246Z,74.94
2023-04-25T02:14:25.485Z,74.79
2023-04-25T02:15:40.274Z,75.07
2023-04-25T02:16:52.595Z,74.94
2023-04-25T02:17:54.316Z,74.72
2023-04-25T02:18:55.719Z,74.71
2023-04-25T02:19:57.143Z,74.84
2023-04-25T02:21:01.664Z,74.86
2023-04-25T02:22:03.117Z,74.72
2023-04-25T02:23:04.707Z,74.83
2023-04-25T02:24:06.683Z,74.78
2023-04-25T02:25:11.066Z,75.05
2023-04-25T02:26:13.677Z,75.08
2023-04-25T02:27:16.864Z,75.04
2023-04-25T02:28:18.470Z,75.09
2023-04-25T02:29:20.432Z,75.17
2023-04-25T02:30:21.999Z,75.15
2023-04-25T02:31:23.637Z,75.14
2023-04-25T02:32:26.167Z,75.13
2023-04-25T02:33:27.711Z,75.21
2023-04-25T02:34:29.172Z,75.06
2023-04-25T02:35:30.607Z,74.99
2023-04-25T02:36:34.514Z,75.06
2023-04-25T02:37:37.932Z,75.19
2023-04-25T02:38:40.099Z,75.01
2023-04-25T02:39:41.651Z,75.06
2023-04-25T02:40:43.477Z,75.05
2023-04-25T02:41:45.094Z,75.15
2023-04-25T02:42:46.523Z,75.11
2023-04-25T02:43:48.028Z,75.26
2023-04-25T02:44:49.654Z,75.36
2023-04-25T02:45:51.550Z,75.34
2023-04-25T02:46:53.831Z,75.05
2023-04-25T02:47:55.407Z,75.18
2023-04-25T02:48:56.925Z,75.30
2023-04-25T02:49:58.493Z,75.15
2023-04-25T02:51:00.412Z,75.16
2023-04-25T02:52:04.493Z,75.17
2023-04-25T02:53:06.176Z,75.25
2023-04-25T02:54:11.499Z,75.20
2023-04-25T02:55:15.907Z,75.12
2023-04-25T02:56:17.967Z,75.01
2023-04-25T02:57:19.541Z,75.17
2023-04-25T02:58:21.129Z,75.14
2023-04-25T02:59:24.993Z,75.24
2023-04-25T03:00:26.399Z,75.20
2023-04-25T03:01:28.406Z,75.19
2023-04-25T03:02:30.106Z,75.20
2023-04-25T03:03:31.802Z,75.19
2023-04-25T03:04:33.792Z,75.22
2023-04-25T03:05:35.678Z,75.26
2023-04-25T03:06:37.369Z,75.30
2023-04-25T03:07:39.773Z,75.25
2023-04-25T03:08:41.316Z,75.16
2023-04-25T03:09:42.806Z,75.12
2023-04-25T03:10:45.618Z,74.92
2023-04-25T03:11:48.385Z,74.76
2023-04-25T03:12:50.195Z,74.78
2023-04-25T03:13:51.849Z,74.78
2023-04-25T03:14:54.612Z,74.80
2023-04-25T03:15:56.106Z,74.69
2023-04-25T03:16:57.722Z,74.70
2023-04-25T03:17:59.286Z,74.59
2023-04-25T03:19:00.982Z,74.57
2023-04-25T03:20:04.326Z,74.52
2023-04-25T03:21:06.295Z,74.57
2023-04-25T03:22:07.771Z,74.58
2023-04-25T03:23:10.305Z,74.53
2023-04-25T03:24:12.372Z,74.70
2023-04-25T03:25:13.784Z,74.76
2023-04-25T03:26:15.931Z,74.69
2023-04-25T03:27:18.094Z,74.79
2023-04-25T03:28:20.289Z,74.84
2023-04-25T03:29:24.756Z,74.85
2023-04-25T03:30:26.956Z,74.82
2023-04-25T03:31:28.513Z,75.00
2023-04-25T03:32:30.530Z,75.09
2023-04-25T03:33:32.345Z,74.92
2023-04-25T03:34:33.780Z,74.91
2023-04-25T03:35:35.150Z,74.91
2023-04-25T03:36:36.521Z,74.81
2023-04-25T03:37:38.050Z,74.81
2023-04-25T03:38:41.594Z,74.94
2023-04-25T03:39:43.682Z,74.83
2023-04-25T03:40:46.069Z,74.81
2023-04-25T03:41:57.995Z,74.89
2023-04-25T03:42:59.741Z,74.13
2023-04-25T03:44:01.339Z,73.33
2023-04-25T03:45:03.352Z,73.44
2023-04-25T03:46:05.336Z,73.41
2023-04-25T03:47:06.815Z,72.83
2023-04-25T03:48:09.354Z,71.65
2023-04-25T03:49:10.773Z,70.91
2023-04-25T03:50:27.399Z,71.15
2023-04-25T03:51:28.918Z,71.18
2023-04-25T03:52:30.370Z,70.52
2023-04-25T03:53:31.930Z,70.61
2023-04-25T03:55:08.960Z,70.71
2023-04-25T03:56:11.264Z,70.77
2023-04-25T03:57:13.342Z,70.71
2023-04-25T03:58:14.898Z,70.32
2023-04-25T03:59:16.528Z,70.55
2023-04-25T04:00:18.023Z,70.61
2023-04-25T04:01:19.741Z,70.68
2023-04-25T04:02:21.465Z,70.81
2023-04-25T04:03:23.776Z,70.84
2023-04-25T04:04:26.137Z,70.83
2023-04-25T04:05:28.780Z,70.87
2023-04-25T04:06:31.506Z,70.87
2023-04-25T04:07:46.661Z,71.02
2023-04-25T04:08:48.700Z,70.67
2023-04-25T04:09:50.177Z,70.71
2023-04-25T04:10:59.339Z,70.66
2023-04-25T04:12:02.141Z,70.50
2023-04-25T04:13:05.278Z,70.49
2023-04-25T04:14:08.672Z,70.56
2023-04-25T04:15:11.419Z,70.22
2023-04-25T04:16:13.273Z,70.03
2023-04-25T04:17:15.680Z,70.10
2023-04-25T04:18:17.186Z,70.06
2023-04-25T04:19:18.687Z,70.03
2023-04-25T04:20:26.986Z,69.83
2023-04-25T04:21:28.593Z,69.69
2023-04-25T04:22:30.163Z,69.63
2023-04-25T04:23:35.199Z,69.71
2023-04-25T04:24:37.327Z,69.68
2023-04-25T04:25:42.225Z,69.46
2023-04-25T04:27:13.319Z,69.34
2023-04-25T04:28:28.909Z,69.26
2023-04-25T04:29:40.003Z,68.95
2023-04-25T04:31:05.175Z,69.23
2023-04-25T04:32:09.003Z,69.51
2023-04-25T04:33:11.607Z,69.48
2023-04-25T04:34:13.262Z,69.45
2023-04-25T04:35:14.983Z,69.48
2023-04-25T04:36:19.993Z,69.57
2023-04-25T04:37:22.244Z,69.62
2023-04-25T04:38:24.300Z,69.67
2023-04-25T04:39:27.370Z,69.69
2023-04-25T04:40:48.057Z,69.50
2023-04-25T04:42:08.925Z,69.64
2023-04-25T04:43:26.284Z,69.81
2023-04-25T04:44:46.749Z,69.79
2023-04-25T04:46:10.624Z,69.69
2023-04-25T04:47:31.110Z,69.85
2023-04-25T04:49:11.595Z,69.68
2023-04-25T04:50:33.038Z,69.69
2023-04-25T04:51:59.686Z,69.62
2023-04-25T04:53:10.984Z,69.78
2023-04-25T04:54:32.822Z,69.55
2023-04-25T04:56:12.815Z,69.42
2023-04-25T04:57:29.203Z,69.32
2023-04-25T04:58:49.385Z,69.28
2023-04-25T05:00:14.111Z,69.19
2023-04-25T05:01:47.139Z,69.39
2023-04-25T05:03:07.858Z,69.31
2023-04-25T05:04:36.192Z,69.63
2023-04-25T05:06:13.097Z,69.55
2023-04-25T05:07:43.537Z,69.51
2023-04-25T05:08:59.321Z,69.60
2023-04-25T05:10:21.136Z,69.58
2023-04-25T05:11:50.768Z,69.51
2023-04-25T05:13:13.374Z,69.08
2023-04-25T05:14:44.101Z,68.81
2023-04-25T05:16:06.129Z,69.16
2023-04-25T05:17:23.225Z,69.00
2023-04-25T05:18:43.329Z,68.75
2023-04-25T05:20:11.159Z,68.75
2023-04-25T05:21:31.751Z,68.52
2023-04-25T05:22:56.478Z,68.67
2023-04-25T05:24:12.161Z,68.62
2023-04-25T05:25:51.825Z,68.61
2023-04-25T05:27:02.646Z,68.19
2023-04-25T05:28:29.266Z,68.12
2023-04-25T05:29:55.089Z,68.10
2023-04-25T05:31:04.125Z,68.23
2023-04-25T05:32:15.240Z,68.17
2023-04-25T05:33:17.133Z,68.10
2023-04-25T05:34:19.368Z,68.30
2023-04-25T05:35:46.850Z,68.21
2023-04-25T05:36:49.365Z,68.14
2023-04-25T05:37:51.060Z,68.16
2023-04-25T05:38:54.654Z,68.23
2023-04-25T05:39:56.191Z,68.29
2023-04-25T05:41:20.703Z,68.04
2023-04-25T05:42:31.560Z,68.08
2023-04-25T05:43:47.243Z,68.09
2023-04-25T05:45:23.802Z,68.08
2023-04-25T05:46:39.986Z,68.23
2023-04-25T05:47:59.475Z,68.21
2023-04-25T05:49:19.802Z,68.01
2023-04-25T05:50:56.841Z,67.88
2023-04-25T05:52:13.459Z,67.98
2023-04-25T05:53:22.572Z,68.06
2023-04-25T05:54:30.798Z,67.99
2023-04-25T05:55:32.475Z,67.60
2023-04-25T05:56:35.985Z,67.68
2023-04-25T05:57:37.486Z,67.77
2023-04-25T05:58:40.578Z,67.92
2023-04-25T05:59:42.736Z,67.86
2023-04-25T06:00:44.846Z,67.58
2023-04-25T06:01:47.064Z,67.73
2023-04-25T06:02:48.915Z,67.88
2023-04-25T06:03:51.958Z,67.81
2023-04-25T06:04:54.122Z,67.47
2023-04-25T06:05:57.772Z,67.38
2023-04-25T06:06:59.289Z,67.19
2023-04-25T06:08:02.236Z,67.21
2023-04-25T06:09:03.784Z,67.19
2023-04-25T06:10:07.669Z,67.19
2023-04-25T06:11:09.090Z,67.27
2023-04-25T06:12:10.637Z,67.40
2023-04-25T06:13:12.265Z,67.27
2023-04-25T06:14:14.448Z,66.66
2023-04-25T06:16:26.290Z,65.54
2023-04-25T06:17:28.219Z,65.31
2023-04-25T06:18:29.736Z,65.47
2023-04-25T06:19:31.313Z,65.55
2023-04-25T06:20:32.925Z,65.02
2023-04-25T06:21:34.926Z,64.76
2023-04-25T06:22:36.419Z,64.89
2023-04-25T06:23:37.862Z,64.89
2023-04-25T06:24:42.276Z,64.94
2023-04-25T06:25:43.747Z,65.05
2023-04-25T06:26:45.229Z,64.81
2023-04-25T06:27:47.177Z,64.67
2023-04-25T06:28:48.679Z,64.78
2023-04-25T06:29:50.421Z,64.97
2023-04-25T06:30:52.001Z,64.25
2023-04-25T06:31:54.344Z,64.55
2023-04-25T06:32:56.572Z,64.78
2023-04-25T06:33:58.817Z,64.93
2023-04-25T06:35:01.073Z,64.79
2023-04-25T06:36:02.742Z,64.49
2023-04-25T06:37:06.307Z,64.71
2023-04-25T06:38:07.972Z,64.92
2023-04-25T06:39:11.614Z,64.92
2023-04-25T06:40:13.123Z,65.05
2023-04-25T06:41:14.725Z,65.04
2023-04-25T06:42:16.379Z,65.26
2023-04-25T06:43:25.344Z,65.43
2023-04-25T06:44:53.004Z,65.47
2023-04-25T06:45:57.691Z,65.39
2023-04-25T06:47:00.718Z,65.26
2023-04-25T06:48:02.651Z,65.44
2023-04-25T06:49:04.281Z,65.71
2023-04-25T06:50:06.324Z,65.72
2023-04-25T06:51:11.443Z,65.96
2023-04-25T06:52:13.735Z,66.10
2023-04-25T06:53:15.327Z,66.21
2023-04-25T06:54:18.257Z,66.28
2023-04-25T06:55:26.965Z,66.32
2023-04-25T06:56:51.337Z,66.35
2023-04-25T06:57:52.859Z,65.92
2023-04-25T06:59:16.260Z,65.79
2023-04-25T07:00:20.773Z,65.89
2023-04-25T07:01:22.347Z,65.70
2023-04-25T07:02:24.446Z,65.48
2023-04-25T07:03:27.161Z,65.52
2023-04-25T07:04:33.167Z,65.39
2023-04-25T07:05:35.420Z,65.10
2023-04-25T07:06:42.648Z,65.07
2023-04-25T07:07:44.182Z,65.16
2023-04-25T07:08:45.707Z,65.06
2023-04-25T07:09:47.339Z,65.08
2023-04-25T07:10:50.145Z,65.20
2023-04-25T07:11:51.737Z,65.01
2023-04-25T07:12:53.545Z,65.14
2023-04-25T07:13:55.818Z,65.06
2023-04-25T07:14:57.828Z,65.05
2023-04-25T07:16:00.213Z,64.86
2023-04-25T07:17:02.739Z,64.82
2023-04-25T07:18:05.284Z,64.72
2023-04-25T07:19:06.997Z,64.38
2023-04-25T07:20:10.373Z,64.22
2023-04-25T07:21:12.066Z,64.43
2023-04-25T07:22:15.162Z,64.40
2023-04-25T07:23:17.200Z,64.58
2023-04-25T07:24:19.287Z,64.59
2023-04-25T07:25:21.402Z,64.50
2023-04-25T07:26:22.964Z,63.90
2023-04-25T07:27:46.863Z,63.86
2023-04-25T07:28:52.407Z,63.77
2023-04-25T07:29:54.353Z,63.72
2023-04-25T07:30:58.497Z,63.72
2023-04-25T07:32:00.128Z,63.54
2023-04-25T07:33:01.794Z,63.32
2023-04-25T07:34:03.457Z,63.08
2023-04-25T07:35:07.491Z,63.26
2023-04-25T07:36:09.000Z,63.42
2023-04-25T07:37:10.956Z,63.25
2023-04-25T07:38:22.049Z,63.28
2023-04-25T07:39:23.683Z,63.41
2023-04-25T07:40:25.886Z,63.40
2023-04-25T07:41:31.641Z,63.56
2023-04-25T07:42:33.827Z,63.56
2023-04-25T07:43:36.056Z,63.41
2023-04-25T07:44:40.480Z,63.53
2023-04-25T07:45:46.752Z,63.59
2023-04-25T07:46:49.303Z,63.31
2023-04-25T07:47:50.773Z,63.22
2023-04-25T07:48:52.749Z,63.33
2023-04-25T07:49:54.918Z,63.37
2023-04-25T07:50:56.792Z,63.37
2023-04-25T07:51:58.454Z,63.19
2023-04-25T07:53:00.138Z,63.39
2023-04-25T07:54:06.337Z,63.48
2023-04-25T07:55:09.676Z,63.36
2023-04-25T07:56:26.345Z,63.21
2023-04-25T07:57:28.010Z,62.88
2023-04-25T07:58:30.319Z,62.60
2023-04-25T07:59:35.566Z,62.50
2023-04-25T08:00:38.220Z,62.37
2023-04-25T08:02:03.036Z,62.07
2023-04-25T08:03:04.693Z,62.30
2023-04-25T08:04:07.447Z,62.37
2023-04-25T08:05:38.877Z,62.22
2023-04-25T08:06:41.344Z,62.48
2023-04-25T08:07:47.137Z,62.40
2023-04-25T08:08:48.937Z,62.18
2023-04-25T08:09:52.867Z,62.23
2023-04-25T08:10:59.608Z,61.62
2023-04-25T08:12:02.552Z,61.41
2023-04-25T08:13:06.351Z,61.18
2023-04-25T08:14:09.867Z,61.35
2023-04-25T08:15:14.046Z,61.25
2023-04-25T08:16:16.198Z,61.24
2023-04-25T08:17:17.719Z,61.37
2023-04-25T08:18:20.634Z,61.40
2023-04-25T08:19:22.871Z,61.60
2023-04-25T08:20:25.424Z,61.86
2023-04-25T08:21:27.973Z,61.71
2023-04-25T08:22:30.736Z,61.73
2023-04-25T08:23:50.504Z,61.58
2023-04-25T08:25:02.611Z,61.31
2023-04-25T08:26:05.260Z,61.06
2023-04-25T08:27:08.136Z,61.08
2023-04-25T08:28:10.326Z,60.72
2023-04-25T08:29:12.085Z,59.94
2023-04-25T08:30:15.074Z,59.85
2023-04-25T08:31:17.697Z,60.50
2023-04-25T08:32:30.951Z,60.67
2023-04-25T08:33:47.941Z,60.43
2023-04-25T08:34:57.182Z,60.43
2023-04-25T08:35:59.388Z,59.40
2023-04-25T08:37:01.972Z,59.16
2023-04-25T08:38:14.961Z,58.93
2023-04-25T08:39:16.524Z,59.24
2023-04-25T08:40:32.903Z,58.85
2023-04-25T08:41:42.000Z,59.85
2023-04-25T08:42:43.831Z,59.84
2023-04-25T08:43:47.074Z,59.91
2023-04-25T08:44:49.423Z,60.26
2023-04-25T08:45:53.925Z,61.01
2023-04-25T08:47:13.436Z,61.74
2023-04-25T08:48:19.665Z,62.19
2023-04-25T08:49:21.558Z,62.31
2023-04-25T08:50:23.713Z,62.09
2023-04-25T08:51:31.257Z,62.38
2023-04-25T08:52:40.293Z,62.39
2023-04-25T08:53:46.158Z,62.13
2023-04-25T08:54:49.338Z,61.89
2023-04-25T08:55:54.110Z,61.44
2023-04-25T08:56:58.801Z,60.87
2023-04-25T08:58:01.173Z,60.58
2023-04-25T08:59:02.892Z,60.42
2023-04-25T09:00:06.146Z,60.13
2023-04-25T09:01:09.795Z,60.21
2023-04-25T09:02:20.214Z,60.20
2023-04-25T09:03:24.005Z,60.25
2023-04-25T09:04:26.252Z,60.11
2023-04-25T09:05:29.085Z,59.92
2023-04-25T09:06:31.016Z,60.09
2023-04-25T09:07:33.391Z,60.23
2023-04-25T09:08:37.179Z,59.85
2023-04-25T09:09:39.645Z,59.52
2023-04-25T09:10:41.382Z,58.40
2023-04-25T09:11:43.188Z,58.24
2023-04-25T09:12:57.098Z,58.63
2023-04-25T09:14:15.496Z,59.23
2023-04-25T09:15:51.688Z,60.17
2023-04-25T09:17:13.534Z,59.88
2023-04-25T09:18:31.125Z,60.42
2023-04-25T09:19:40.290Z,60.88
2023-04-25T09:21:56.534Z,61.01
2023-04-25T09:23:05.741Z,61.46
2023-04-25T09:24:09.089Z,61.63
2023-04-25T09:25:12.224Z,61.07
2023-04-25T09:26:17.285Z,60.90
2023-04-25T09:27:23.127Z,61.35
2023-04-25T09:28:28.513Z,60.53
2023-04-25T09:29:35.005Z,60.54
2023-04-25T09:30:37.285Z,61.34
2023-04-25T09:31:52.409Z,61.18
2023-04-25T09:32:57.331Z,61.46
2023-04-25T09:34:02.775Z,61.58
2023-04-25T09:35:10.678Z,61.76
2023-04-25T09:36:13.577Z,61.96
2023-04-25T09:37:37.258Z,61.66
2023-04-25T09:39:15.557Z,62.02
2023-04-25T09:40:20.088Z,62.15
2023-04-25T09:41:30.248Z,62.67
2023-04-25T09:42:35.848Z,63.02
2023-04-25T09:43:38.187Z,62.44
2023-04-25T09:44:46.250Z,62.08
2023-04-25T09:45:48.933Z,61.76
2023-04-25T09:46:54.548Z,61.39
2023-04-25T09:48:06.421Z,61.47
2023-04-25T09:49:08.649Z,61.24
2023-04-25T09:50:20.243Z,61.14
2023-04-25T09:51:27.326Z,61.02
2023-04-25T09:52:29.384Z,60.43
2023-04-25T09:53:50.220Z,60.08
2023-04-25T09:55:14.611Z,59.57
2023-04-25T09:56:16.518Z,59.39
2023-04-25T09:57:24.949Z,59.24
2023-04-25T09:58:32.703Z,59.14
2023-04-25T09:59:39.040Z,59.11
2023-04-25T10:00:41.619Z,59.45
2023-04-25T10:01:50.420Z,60.01
2023-04-25T10:03:01.759Z,60.16
2023-04-25T10:04:29.209Z,60.14
2023-04-25T10:05:36.082Z,60.33
2023-04-25T10:06:39.220Z,60.98
2023-04-25T10:07:41.514Z,61.59
2023-04-25T10:08:54.093Z,61.65
2023-04-25T10:10:03.645Z,61.68
2023-04-25T10:11:08.202Z,61.68
2023-04-25T10:12:10.209Z,61.83
2023-04-25T10:13:11.852Z,61.76
2023-04-25T10:14:14.010Z,61.76
2023-04-25T10:15:15.848Z,62.01
2023-04-25T10:16:18.120Z,62.23
2023-04-25T10:17:20.420Z,61.26
2023-04-25T10:18:22.412Z,61.74
2023-04-25T10:19:24.950Z,61.62
2023-04-25T10:20:26.627Z,61.58
2023-04-25T10:21:31.757Z,61.72
2023-04-25T10:22:37.258Z,61.53
2023-04-25T10:23:39.171Z,61.38
2023-04-25T10:24:42.091Z,61.29
2023-04-25T10:25:44.252Z,61.85
2023-04-25T10:26:47.243Z,62.05
2023-04-25T10:27:51.798Z,61.40
2023-04-25T10:28:58.162Z,61.58
2023-04-25T10:30:11.543Z,61.92
2023-04-25T10:31:16.739Z,61.97
2023-04-25T10:32:18.353Z,61.80
2023-04-25T10:33:32.568Z,61.93
2023-04-25T10:34:42.736Z,61.56
2023-04-25T10:35:45.736Z,61.84
2023-04-25T10:36:55.200Z,61.87
2023-04-25T10:38:05.489Z,61.60
2023-04-25T10:39:09.178Z,61.67
2023-04-25T10:40:11.684Z,61.07
2023-04-25T10:41:14.381Z,61.04
2023-04-25T10:42:16.158Z,61.07
2023-04-25T10:43:35.840Z,61.43
2023-04-25T10:44:39.260Z,62.01
2023-04-25T10:45:53.528Z,61.82
2023-04-25T10:46:57.224Z,61.85
2023-04-25T10:47:58.717Z,62.00
2023-04-25T10:49:02.171Z,61.96
2023-04-25T10:50:08.762Z,61.64
2023-04-25T10:51:11.766Z,62.12
2023-04-25T10:52:28.548Z,62.23
2023-04-25T10:53:33.820Z,62.66
2023-04-25T10:54:35.327Z,62.50
2023-04-25T10:55:50.320Z,62.11
2023-04-25T10:56:51.901Z,61.86
2023-04-25T10:57:54.711Z,61.20
2023-04-25T10:59:06.609Z,61.00
2023-04-25T11:00:16.944Z,60.66
2023-04-25T11:01:24.860Z,60.64
2023-04-25T11:02:29.557Z,59.29
2023-04-25T11:03:31.516Z,58.50
2023-04-25T11:04:39.079Z,58.76
2023-04-25T11:05:57.378Z,58.92
2023-04-25T11:07:07.964Z,58.85
2023-04-25T11:08:14.432Z,59.18
2023-04-25T11:09:15.927Z,59.67
2023-04-25T11:10:18.004Z,60.42
2023-04-25T11:11:20.092Z,60.76
2023-04-25T11:12:21.799Z,61.27
2023-04-25T11:13:29.168Z,61.42
2023-04-25T11:14:31.297Z,61.66
2023-04-25T11:15:32.819Z,62.09
2023-04-25T11:16:34.423Z,62.45
2023-04-25T11:17:36.111Z,62.95
2023-04-25T11:18:38.673Z,63.40
2023-04-25T11:19:40.859Z,63.27
2023-04-25T11:20:44.021Z,63.19
2023-04-25T11:21:45.515Z,63.30
2023-04-25T11:22:47.691Z,62.38
2023-04-25T11:23:49.297Z,62.66
2023-04-25T11:24:51.368Z,62.04
2023-04-25T11:25:53.022Z,61.51
2023-04-25T11:26:54.679Z,60.96
2023-04-25T11:27:58.217Z,60.91
2023-04-25T11:29:03.143Z,60.75
2023-04-25T11:30:13.652Z,60.79
2023-04-25T11:31:15.636Z,60.99
2023-04-25T11:32:19.732Z,60.53
2023-04-25T11:33:27.451Z,60.44
2023-04-25T11:34:31.042Z,60.04
2023-04-25T11:35:33.997Z,59.99
2023-04-25T11:36:38.504Z,59.96
2023-04-25T11:37:41.383Z,60.31
2023-04-25T11:38:43.108Z,60.52
2023-04-25T11:39:46.463Z,60.26
2023-04-25T11:40:52.693Z,59.78
2023-04-25T11:41:55.017Z,59.65
2023-04-25T11:42:56.617Z,59.74
2023-04-25T11:43:58.830Z,59.98
2023-04-25T11:45:00.754Z,59.79
2023-04-25T11:46:08.450Z,59.72
2023-04-25T11:47:10.037Z,59.56
2023-04-25T11:48:11.871Z,59.55
2023-04-25T11:49:14.458Z,59.45
2023-04-25T11:50:15.866Z,59.59
2023-04-25T11:51:17.779Z,59.69
2023-04-25T11:52:19.197Z,60.20
2023-04-25T11:53:20.788Z,60.77
2023-04-25T11:54:23.302Z,61.44
2023-04-25T11:55:24.857Z,61.78
2023-04-25T11:56:26.444Z,61.83
2023-04-25T11:57:28.035Z,61.86
2023-04-25T11:58:29.482Z,62.29
2023-04-25T11:59:31.296Z,62.60
2023-04-25T12:00:33.045Z,62.94
2023-04-25T12:01:35.975Z,62.66
2023-04-25T12:02:41.376Z,62.30
2023-04-25T12:03:48.809Z,62.39
2023-04-25T12:04:50.904Z,61.96
2023-04-25T12:05:52.809Z,62.46
2023-04-25T12:06:56.006Z,62.12
2023-04-25T12:07:57.783Z,62.01
2023-04-25T12:09:04.140Z,61.96
2023-04-25T12:10:10.678Z,62.05
2023-04-25T12:11:22.244Z,61.76
2023-04-25T12:12:28.213Z,61.92
2023-04-25T12:13:31.893Z,61.99
2023-04-25T12:14:35.984Z,61.84
2023-04-25T12:15:41.160Z,61.97
2023-04-25T12:16:46.084Z,61.89
2023-04-25T12:17:53.215Z,61.70
2023-04-25T12:18:57.348Z,61.88
2023-04-25T12:19:58.828Z,61.81
2023-04-25T12:21:00.432Z,61.70
2023-04-25T12:22:05.485Z,61.45
2023-04-25T12:23:12.002Z,61.36
2023-04-25T12:24:15.892Z,61.42
2023-04-25T12:25:38.457Z,60.77
2023-04-25T12:27:00.250Z,59.66
2023-04-25T12:28:24.939Z,58.41
2023-04-25T12:29:31.749Z,58.10
2023-04-25T12:31:08.798Z,58.23
2023-04-25T12:32:10.783Z,59.01
2023-04-25T12:33:12.292Z,59.71
2023-04-25T12:34:13.888Z,59.81
2023-04-25T12:35:15.350Z,60.07
2023-04-25T12:36:17.374Z,59.99
2023-04-25T12:37:19.919Z,60.44
2023-04-25T12:38:31.873Z,60.72
2023-04-25T12:39:33.665Z,61.17
2023-04-25T12:40:35.262Z,62.13
2023-04-25T12:41:37.965Z,62.42
2023-04-25T12:42:39.347Z,62.90
2023-04-25T12:43:40.784Z,63.19
2023-04-25T12:44:42.686Z,63.10
2023-04-25T12:45:54.940Z,63.13
2023-04-25T12:46:56.601Z,63.10
2023-04-25T12:47:58.166Z,63.04
2023-04-25T12:49:11.671Z,63.29
2023-04-25T12:50:18.939Z,63.14
2023-04-25T12:51:20.365Z,62.85
2023-04-25T12:52:22.103Z,62.83
2023-04-25T12:53:26.497Z,62.82
2023-04-25T12:54:27.899Z,62.82
2023-04-25T12:55:30.082Z,62.67
2023-04-25T12:56:31.927Z,62.98
2023-04-25T12:57:33.453Z,62.98
2023-04-25T12:58:35.041Z,62.89
2023-04-25T12:59:36.576Z,62.63
2023-04-25T13:00:38.226Z,62.10
2023-04-25T13:01:40.061Z,62.05
2023-04-25T13:02:42.062Z,61.87
2023-04-25T13:03:43.990Z,62.04
2023-04-25T13:04:45.905Z,61.84
2023-04-25T13:05:47.715Z,61.60
2023-04-25T13:06:49.375Z,61.23
2023-04-25T13:07:51.682Z,60.97
2023-04-25T13:08:53.800Z,60.73
2023-04-25T13:09:56.059Z,60.77
2023-04-25T13:10:57.538Z,60.92
2023-04-25T13:11:59.390Z,61.18
2023-04-25T13:13:01.565Z,61.17
2023-04-25T13:14:03.276Z,61.21
2023-04-25T13:15:05.413Z,61.38
2023-04-25T13:16:07.815Z,61.39
2023-04-25T13:17:09.580Z,61.44
2023-04-25T13:18:11.216Z,61.13
2023-04-25T13:19:13.010Z,61.33
2023-04-25T13:20:15.335Z,60.87
2023-04-25T13:21:16.829Z,60.81
2023-04-25T13:22:20.486Z,60.91
2023-04-25T13:23:22.503Z,60.86
2023-04-25T13:24:24.135Z,60.91
2023-04-25T13:25:26.149Z,60.76
2023-04-25T13:26:27.723Z,60.28
2023-04-25T13:27:29.222Z,60.32
2023-04-25T13:28:30.767Z,60.57
2023-04-25T13:29:35.055Z,60.77
2023-04-25T13:30:37.287Z,60.60
2023-04-25T13:31:38.905Z,60.39
2023-04-25T13:32:41.329Z,60.24
2023-04-25T13:33:43.953Z,60.11
2023-04-25T13:34:45.534Z,59.54
2023-04-25T13:35:54.250Z,59.50
2023-04-25T13:36:55.942Z,59.30
2023-04-25T13:37:58.260Z,59.31
2023-04-25T13:39:00.033Z,60.34
2023-04-25T13:40:05.196Z,60.55
2023-04-25T13:41:07.630Z,61.31
2023-04-25T13:42:09.018Z,61.32
2023-04-25T13:43:10.609Z,62.07
2023-04-25T13:44:12.121Z,62.57
2023-04-25T13:45:13.783Z,63.04
2023-04-25T13:46:29.950Z,63.32
2023-04-25T13:47:32.114Z,63.56
2023-04-25T13:48:33.673Z,63.38
2023-04-25T13:49:35.145Z,63.29
2023-04-25T13:50:36.941Z,62.95
2023-04-25T13:51:38.427Z,63.02
2023-04-25T13:52:40.629Z,62.92
2023-04-25T13:53:42.164Z,62.67
2023-04-25T13:54:43.700Z,62.33
2023-04-25T13:55:45.326Z,62.11
2023-04-25T13:56:46.862Z,61.77
2023-04-25T13:57:48.436Z,60.70
2023-04-25T13:58:52.793Z,60.67
2023-04-25T13:59:54.340Z,60.33
2023-04-25T14:00:56.461Z,60.15
2023-04-25T14:01:57.972Z,60.19
2023-04-25T14:02:59.562Z,60.34
2023-04-25T14:04:01.295Z,59.78
2023-04-25T14:05:04.508Z,59.79
2023-04-25T14:06:06.498Z,59.41